createdAt,value
2023-03-29T00:01:41.886Z,101391.13
2023-03-29T00:04:10.112Z,101386.28
2023-03-29T00:06:36.750Z,101384.91
2023-03-29T00:09:05.465Z,101387.88
2023-03-29T00:11:32.395Z,101397.06
2023-03-29T00:13:58.814Z,101397.56
2023-03-29T00:16:25.304Z,101395.13
2023-03-29T00:18:51.869Z,101384.88
2023-03-29T00:21:18.315Z,101384.34
2023-03-29T00:23:44.718Z,101383.25
2023-03-29T00:26:11.721Z,101371.66
2023-03-29T00:28:38.200Z,101381.38
2023-03-29T00:31:10.562Z,101376.25
2023-03-29T00:33:37.447Z,101376.25
2023-03-29T00:36:04.674Z,101374.34
2023-03-29T00:38:31.801Z,101366.81
2023-03-29T00:40:58.634Z,101365.44
2023-03-29T00:43:25.469Z,101362.47
2023-03-29T00:45:52.596Z,101360.03
2023-03-29T00:48:26.348Z,101359.78
2023-03-29T00:51:20.792Z,101347.34
2023-03-29T00:53:50.753Z,101345.16
2023-03-29T00:56:31.287Z,101342.47
2023-03-29T00:59:09.688Z,101338.97
2023-03-29T01:01:46.686Z,101335.44
2023-03-29T01:04:20.297Z,101333.53
2023-03-29T01:06:57.150Z,101328.16
2023-03-29T01:09:27.094Z,101323.00
2023-03-29T01:11:56.751Z,101317.31
2023-03-29T01:14:31.078Z,101314.88
2023-03-29T01:16:57.560Z,101311.06
2023-03-29T01:19:30.252Z,101309.72
2023-03-29T01:22:13.529Z,101301.34
2023-03-29T01:25:16.979Z,101294.34
2023-03-29T01:27:53.243Z,101285.16
2023-03-29T01:30:26.660Z,101276.75
2023-03-29T01:32:59.109Z,101281.13
2023-03-29T01:35:49.249Z,101275.63
2023-03-29T01:38:30.631Z,101263.50
2023-03-29T01:40:57.141Z,101262.41
2023-03-29T01:43:31.248Z,101258.88
2023-03-29T01:46:27.393Z,101254.03
2023-03-29T01:49:01.624Z,101248.91
2023-03-29T01:51:42.292Z,101248.63
2023-03-29T01:54:35.273Z,101253.75
2023-03-29T01:57:05.690Z,101240.22
2023-03-29T01:59:35.680Z,101239.94
2023-03-29T02:02:05.783Z,101239.66
2023-03-29T02:04:35.746Z,101244.69
2023-03-29T02:07:05.028Z,101237.97
2023-03-29T02:09:33.498Z,101242.09
2023-03-29T02:12:01.020Z,101230.47
2023-03-29T02:14:27.597Z,101233.91
2023-03-29T02:16:54.096Z,101223.97
2023-03-29T02:19:21.710Z,101214.91
2023-03-29T02:21:57.505Z,101206.84
2023-03-29T02:24:26.095Z,101206.84
2023-03-29T02:26:52.589Z,101207.94
2023-03-29T02:29:19.105Z,101205.22
2023-03-29T02:31:58.610Z,101201.69
2023-03-29T02:34:38.861Z,101198.13
2023-03-29T02:37:11.653Z,101194.31
2023-03-29T02:39:39.432Z,101195.75
2023-03-29T02:42:07.392Z,101192.75
2023-03-29T02:44:39.065Z,101188.50
2023-03-29T02:47:38.057Z,101191.72
2023-03-29T02:50:05.222Z,101191.56
2023-03-29T02:52:39.190Z,101184.72
2023-03-29T02:55:11.370Z,101184.81
2023-03-29T02:57:39.322Z,101183.13
2023-03-29T03:00:10.201Z,101176.53
2023-03-29T03:02:37.834Z,101178.25
2023-03-29T03:05:05.802Z,101176.00
2023-03-29T03:07:33.722Z,101166.41
2023-03-29T03:10:00.205Z,101163.72
2023-03-29T03:12:27.064Z,101162.59
2023-03-29T03:14:53.552Z,101155.09
2023-03-29T03:17:19.976Z,101156.66
2023-03-29T03:19:46.358Z,101152.34
2023-03-29T03:22:12.870Z,101148.47
2023-03-29T03:24:39.312Z,101149.81
2023-03-29T03:27:06.143Z,101155.44
2023-03-29T03:29:32.575Z,101142.94
2023-03-29T03:31:59.107Z,101144.09
2023-03-29T03:34:26.196Z,101148.63
2023-03-29T03:36:55.410Z,101145.19
2023-03-29T03:39:21.953Z,101146.34
2023-03-29T03:41:48.508Z,101147.28
2023-03-29T03:44:14.939Z,101144.84
2023-03-29T03:46:41.481Z,101151.13
2023-03-29T03:49:07.904Z,101144.47
2023-03-29T03:51:34.504Z,101146.69
2023-03-29T03:54:01.149Z,101144.31
2023-03-29T03:56:29.748Z,101145.25
2023-03-29T03:58:56.946Z,101148.41
2023-03-29T04:01:23.944Z,101149.16
2023-03-29T04:03:50.806Z,101149.44
2023-03-29T04:06:17.291Z,101145.19
2023-03-29T04:08:43.745Z,101138.72
2023-03-29T04:11:10.549Z,101137.44
2023-03-29T04:13:37.102Z,101137.13
2023-03-29T04:16:03.911Z,101138.22
2023-03-29T04:18:30.638Z,101133.16
2023-03-29T04:20:57.091Z,101126.88
2023-03-29T04:23:23.599Z,101129.59
2023-03-29T04:25:53.636Z,101130.03
2023-03-29T04:28:20.292Z,101128.34
2023-03-29T04:30:48.085Z,101129.16
2023-03-29T04:33:15.277Z,101120.50
2023-03-29T04:35:42.332Z,101128.91
2023-03-29T04:38:10.062Z,101125.91
2023-03-29T04:40:36.514Z,101128.34
2023-03-29T04:43:02.989Z,101118.44
2023-03-29T04:45:29.925Z,101115.16
2023-03-29T04:47:59.606Z,101111.09
2023-03-29T04:50:26.299Z,101110.03
2023-03-29T04:52:52.774Z,101108.06
2023-03-29T04:55:19.409Z,101109.75
2023-03-29T04:57:46.066Z,101097.25
2023-03-29T05:00:16.878Z,101109.47
2023-03-29T05:02:44.523Z,101110.97
2023-03-29T05:05:12.055Z,101102.31
2023-03-29T05:07:39.336Z,101105.88
2023-03-29T05:10:06.607Z,101107.00
2023-03-29T05:12:33.048Z,101110.34
2023-03-29T05:14:59.481Z,101106.50
2023-03-29T05:17:27.296Z,101107.97
2023-03-29T05:19:54.213Z,101107.50
2023-03-29T05:22:21.623Z,101111.72
2023-03-29T05:24:48.292Z,101111.69
2023-03-29T05:27:14.788Z,101104.09
2023-03-29T05:29:41.227Z,101107.97
2023-03-29T05:32:07.867Z,101101.03
2023-03-29T05:34:34.327Z,101099.84
2023-03-29T05:37:01.457Z,101098.50
2023-03-29T05:39:27.893Z,101100.94
2023-03-29T05:41:55.156Z,101103.69
2023-03-29T05:44:21.749Z,101100.31
2023-03-29T05:46:48.199Z,101093.72
2023-03-29T05:49:14.586Z,101093.50
2023-03-29T05:51:42.092Z,101094.16
2023-03-29T05:54:08.540Z,101090.81
2023-03-29T05:56:34.947Z,101090.22
2023-03-29T05:59:02.117Z,101089.53
2023-03-29T06:01:28.642Z,101089.94
2023-03-29T06:03:56.379Z,101087.09
2023-03-29T06:06:23.095Z,101087.75
2023-03-29T06:08:50.485Z,101071.72
2023-03-29T06:11:17.527Z,101083.16
2023-03-29T06:13:43.991Z,101088.41
2023-03-29T06:16:11.153Z,101082.50
2023-03-29T06:18:39.997Z,101084.84
2023-03-29T06:21:09.135Z,101085.34
2023-03-29T06:23:36.367Z,101086.97
2023-03-29T06:26:03.387Z,101082.94
2023-03-29T06:28:29.847Z,101086.78
2023-03-29T06:30:56.618Z,101086.84
2023-03-29T06:33:25.128Z,101085.34
2023-03-29T06:35:51.668Z,101086.00
2023-03-29T06:38:18.135Z,101083.47
2023-03-29T06:40:44.735Z,101087.72
2023-03-29T06:43:11.860Z,101087.19
2023-03-29T06:45:39.344Z,101091.81
2023-03-29T06:48:07.855Z,101089.91
2023-03-29T06:50:35.409Z,101084.50
2023-03-29T06:53:02.317Z,101084.81
2023-03-29T06:55:28.715Z,101079.00
2023-03-29T06:57:55.214Z,101081.91
2023-03-29T07:00:27.991Z,101074.38
2023-03-29T07:02:56.498Z,101070.25
2023-03-29T07:05:23.919Z,101077.19
2023-03-29T07:07:55.049Z,101076.59
2023-03-29T07:10:28.038Z,101084.94
2023-03-29T07:12:55.026Z,101093.06
2023-03-29T07:15:21.823Z,101088.03
2023-03-29T07:17:49.287Z,101083.81
2023-03-29T07:20:16.581Z,101080.91
2023-03-29T07:22:44.275Z,101090.22
2023-03-29T07:25:12.637Z,101088.44
2023-03-29T07:27:42.073Z,101090.66
2023-03-29T07:30:11.398Z,101087.03
2023-03-29T07:32:39.443Z,101086.72
2023-03-29T07:35:07.798Z,101081.50
2023-03-29T07:37:37.325Z,101084.94
2023-03-29T07:40:08.982Z,101089.84
2023-03-29T07:42:38.835Z,101094.03
2023-03-29T07:45:09.535Z,101102.38
2023-03-29T07:47:36.098Z,101096.28
2023-03-29T07:50:04.314Z,101092.97
2023-03-29T07:52:30.771Z,101083.41
2023-03-29T07:54:57.377Z,101085.38
2023-03-29T07:57:25.610Z,101089.59
2023-03-29T07:59:53.960Z,101083.44
2023-03-29T08:02:21.122Z,101071.69
2023-03-29T08:04:48.206Z,101077.97
2023-03-29T08:07:17.788Z,101071.06
2023-03-29T08:09:45.650Z,101084.03
2023-03-29T08:12:12.576Z,101084.19
2023-03-29T08:14:39.084Z,101073.81
2023-03-29T08:17:06.160Z,101076.25
2023-03-29T08:19:32.706Z,101082.56
2023-03-29T08:22:00.551Z,101079.09
2023-03-29T08:24:27.216Z,101081.03
2023-03-29T08:26:53.893Z,101079.59
2023-03-29T08:29:20.598Z,101071.75
2023-03-29T08:31:47.190Z,101070.94
2023-03-29T08:34:14.032Z,101071.44
2023-03-29T08:36:40.563Z,101074.16
2023-03-29T08:39:07.068Z,101069.38
2023-03-29T08:41:52.277Z,101071.13
2023-03-29T08:44:55.978Z,101067.44
2023-03-29T08:48:01.030Z,101066.16
2023-03-29T08:50:33.991Z,101062.78
2023-03-29T08:53:20.195Z,101063.56
2023-03-29T08:55:51.641Z,101058.94
2023-03-29T08:58:24.475Z,101065.00
2023-03-29T09:00:57.341Z,101063.06
2023-03-29T09:03:35.601Z,101065.19
2023-03-29T09:06:08.077Z,101065.50
2023-03-29T09:08:43.906Z,101062.75
2023-03-29T09:11:19.274Z,101061.97
2023-03-29T09:14:06.959Z,101064.81
2023-03-29T09:16:44.961Z,101070.28
2023-03-29T09:19:31.430Z,101071.19
2023-03-29T09:22:08.491Z,101061.75
2023-03-29T09:24:38.322Z,101064.78
2023-03-29T09:27:10.109Z,101059.94
2023-03-29T09:29:45.229Z,101064.63
2023-03-29T09:32:24.975Z,101065.41
2023-03-29T09:35:15.435Z,101063.81
2023-03-29T09:37:42.446Z,101064.38
2023-03-29T09:40:17.553Z,101054.91
2023-03-29T09:42:45.746Z,101060.38
2023-03-29T09:45:12.203Z,101058.94
2023-03-29T09:47:45.101Z,101054.88
2023-03-29T09:50:30.856Z,101056.97
2023-03-29T09:52:58.504Z,101058.84
2023-03-29T09:55:31.264Z,101042.59
2023-03-29T09:58:00.656Z,101041.66
2023-03-29T10:00:27.516Z,101043.69
2023-03-29T10:02:56.940Z,101032.34
2023-03-29T10:05:26.166Z,101040.72
2023-03-29T10:07:57.745Z,101047.59
2023-03-29T10:10:33.630Z,101048.31
2023-03-29T10:13:04.339Z,101037.31
2023-03-29T10:15:31.636Z,101041.78
2023-03-29T10:18:05.618Z,101042.47
2023-03-29T10:20:36.357Z,101033.53
2023-03-29T10:23:06.633Z,101029.81
2023-03-29T10:25:36.885Z,101028.63
2023-03-29T10:28:20.986Z,101037.47
2023-03-29T10:30:53.830Z,101028.41
2023-03-29T10:33:23.997Z,101025.59
2023-03-29T10:35:51.503Z,101017.28
2023-03-29T10:38:20.704Z,101032.72
2023-03-29T10:40:49.482Z,101022.41
2023-03-29T10:43:26.251Z,101019.19
2023-03-29T10:46:05.797Z,101018.91
2023-03-29T10:48:35.906Z,101019.81
2023-03-29T10:51:05.978Z,101019.00
2023-03-29T10:53:34.903Z,101015.44
2023-03-29T10:56:04.177Z,101014.94
2023-03-29T10:58:55.362Z,101022.19
2023-03-29T11:01:32.223Z,101022.50
2023-03-29T11:04:04.712Z,101014.56
2023-03-29T11:06:49.641Z,101007.72
2023-03-29T11:09:26.999Z,101012.66
2023-03-29T11:12:35.640Z,101012.44
2023-03-29T11:15:39.910Z,101008.25
2023-03-29T11:18:18.881Z,101000.84
2023-03-29T11:20:52.545Z,101001.41
2023-03-29T11:23:48.040Z,100992.78
2023-03-29T11:26:29.883Z,100991.66
2023-03-29T11:28:57.808Z,100986.53
2023-03-29T11:31:37.983Z,100998.84
2023-03-29T11:34:18.968Z,100991.13
2023-03-29T11:36:50.392Z,100991.31
2023-03-29T11:39:44.735Z,100999.00
2023-03-29T11:42:21.479Z,100996.50
2023-03-29T11:44:54.104Z,100990.91
2023-03-29T11:47:23.659Z,100983.25
2023-03-29T11:49:57.804Z,100984.75
2023-03-29T11:52:40.452Z,100986.78
2023-03-29T11:55:16.376Z,100985.00
2023-03-29T11:58:01.040Z,100977.31
2023-03-29T12:00:38.470Z,100981.84
2023-03-29T12:03:17.462Z,100981.63
2023-03-29T12:05:43.977Z,100979.47
2023-03-29T12:08:17.780Z,100975.47
2023-03-29T12:10:50.119Z,100972.94
2023-03-29T12:13:22.583Z,100979.13
2023-03-29T12:15:56.718Z,100980.94
2023-03-29T12:18:41.082Z,100980.16
2023-03-29T12:21:15.182Z,100967.78
2023-03-29T12:23:43.263Z,100980.97
2023-03-29T12:26:41.022Z,100973.13
2023-03-29T12:30:12.530Z,100972.81
2023-03-29T12:32:57.769Z,100975.25
2023-03-29T12:35:52.360Z,100969.34
2023-03-29T12:38:30.937Z,100962.16
2023-03-29T12:41:00.769Z,100963.06
2023-03-29T12:43:31.865Z,100957.94
2023-03-29T12:46:06.259Z,100951.34
2023-03-29T12:48:34.071Z,100953.88
2023-03-29T12:51:03.508Z,100945.66
2023-03-29T12:53:41.929Z,100942.06
2023-03-29T12:56:10.373Z,100942.50
2023-03-29T12:58:39.838Z,100939.66
2023-03-29T13:01:33.215Z,100938.88
2023-03-29T13:03:59.644Z,100938.09
2023-03-29T13:06:28.883Z,100928.97
2023-03-29T13:09:21.439Z,100927.03
2023-03-29T13:12:32.156Z,100930.22
2023-03-29T13:15:02.591Z,100930.56
2023-03-29T13:17:38.057Z,100934.09
2023-03-29T13:20:10.850Z,100944.94
2023-03-29T13:22:59.328Z,100942.06
2023-03-29T13:25:33.611Z,100941.84
2023-03-29T13:28:12.190Z,100937.19
2023-03-29T13:30:55.736Z,100949.72
2023-03-29T13:33:43.608Z,100943.66
2023-03-29T13:36:47.636Z,100937.94
2023-03-29T13:39:22.902Z,100920.84
2023-03-29T13:41:54.127Z,100915.38
2023-03-29T13:44:43.451Z,100925.53
2023-03-29T13:47:18.198Z,100924.50
2023-03-29T13:49:53.128Z,100922.34
2023-03-29T13:52:29.174Z,100926.09
2023-03-29T13:55:02.044Z,100924.63
2023-03-29T13:57:38.820Z,100928.84
2023-03-29T14:00:11.810Z,100925.50
2023-03-29T14:02:50.096Z,100925.97
2023-03-29T14:05:21.614Z,100936.28
2023-03-29T14:07:52.549Z,100938.38
2023-03-29T14:10:27.301Z,100923.59
2023-03-29T14:12:55.815Z,100927.28
2023-03-29T14:15:36.762Z,100926.41
2023-03-29T14:18:03.550Z,100925.16
2023-03-29T14:20:32.776Z,100923.06
2023-03-29T14:22:59.309Z,100928.78
2023-03-29T14:25:26.086Z,100929.75
2023-03-29T14:27:52.524Z,100923.13
2023-03-29T14:30:31.728Z,100920.84
2023-03-29T14:32:58.246Z,100914.34
2023-03-29T14:35:31.540Z,100904.44
2023-03-29T14:37:58.996Z,100909.44
2023-03-29T14:40:27.521Z,100905.00
2023-03-29T14:42:54.293Z,100904.31
2023-03-29T14:45:23.203Z,100909.91
2023-03-29T14:47:50.724Z,100911.75
2023-03-29T14:50:28.144Z,100914.91
2023-03-29T14:52:57.603Z,100910.34
2023-03-29T14:55:24.853Z,100898.63
2023-03-29T14:57:54.680Z,100899.63
2023-03-29T15:00:26.841Z,100899.88
2023-03-29T15:02:55.881Z,100908.44
2023-03-29T15:05:33.031Z,100893.47
2023-03-29T15:08:01.845Z,100909.44
2023-03-29T15:10:33.216Z,100893.34
2023-03-29T15:13:02.506Z,100894.41
2023-03-29T15:15:33.305Z,100892.91
2023-03-29T15:18:00.807Z,100887.56
2023-03-29T15:20:32.518Z,100887.75
2023-03-29T15:23:01.053Z,100883.78
2023-03-29T15:25:37.534Z,100865.78
2023-03-29T15:28:04.892Z,100857.75
2023-03-29T15:30:38.280Z,100852.44
2023-03-29T15:33:24.202Z,100843.06
2023-03-29T15:35:53.779Z,100843.03
2023-03-29T15:38:25.447Z,100830.97
2023-03-29T15:41:00.809Z,100828.09
2023-03-29T15:43:27.618Z,100834.16
2023-03-29T15:45:55.047Z,100828.75
2023-03-29T15:48:25.619Z,100824.91
2023-03-29T15:50:53.523Z,100808.84
2023-03-29T15:53:21.862Z,100820.47
2023-03-29T15:55:51.405Z,100823.66
2023-03-29T15:58:22.689Z,100818.19
2023-03-29T16:00:59.052Z,100821.25
2023-03-29T16:03:27.298Z,100814.75
2023-03-29T16:05:56.743Z,100801.00
2023-03-29T16:08:24.929Z,100800.84
2023-03-29T16:10:51.531Z,100810.44
2023-03-29T16:13:18.334Z,100804.97
2023-03-29T16:15:46.053Z,100804.28
2023-03-29T16:18:12.521Z,100800.25
2023-03-29T16:20:39.136Z,100793.19
2023-03-29T16:23:09.680Z,100804.16
2023-03-29T16:25:38.427Z,100804.03
2023-03-29T16:28:05.514Z,100800.16
2023-03-29T16:30:32.259Z,100801.75
2023-03-29T16:32:58.815Z,100800.16
2023-03-29T16:35:31.198Z,100793.78
2023-03-29T16:37:57.856Z,100795.28
2023-03-29T16:40:25.974Z,100789.47
2023-03-29T16:42:52.508Z,100796.97
2023-03-29T16:45:19.518Z,100794.47
2023-03-29T16:47:46.095Z,100788.53
2023-03-29T16:50:19.025Z,100786.97
2023-03-29T16:52:48.313Z,100784.34
2023-03-29T16:55:15.688Z,100775.56
2023-03-29T16:57:42.705Z,100768.38
2023-03-29T17:00:15.805Z,100777.47
2023-03-29T17:02:43.354Z,100769.25
2023-03-29T17:05:11.707Z,100768.97
2023-03-29T17:07:39.350Z,100773.97
2023-03-29T17:10:11.025Z,100775.00
2023-03-29T17:12:37.731Z,100769.19
2023-03-29T17:15:06.465Z,100766.19
2023-03-29T17:17:33.989Z,100763.59
2023-03-29T17:20:00.577Z,100764.38
2023-03-29T17:22:27.110Z,100761.63
2023-03-29T17:24:53.567Z,100749.69
2023-03-29T17:27:20.932Z,100750.25
2023-03-29T17:29:47.543Z,100746.94
2023-03-29T17:32:14.087Z,100751.72
2023-03-29T17:34:40.816Z,100751.16
2023-03-29T17:37:07.612Z,100751.59
2023-03-29T17:39:37.297Z,100739.97
2023-03-29T17:42:05.239Z,100752.72
2023-03-29T17:44:33.292Z,100751.63
2023-03-29T17:47:01.189Z,100750.69
2023-03-29T17:49:28.017Z,100739.19
2023-03-29T17:51:54.781Z,100744.78
2023-03-29T17:54:21.278Z,100754.69
2023-03-29T17:56:48.861Z,100751.59
2023-03-29T17:59:15.560Z,100740.56
2023-03-29T18:01:42.376Z,100744.22
2023-03-29T18:04:09.303Z,100747.03
2023-03-29T18:06:35.935Z,100746.50
2023-03-29T18:09:03.161Z,100742.06
2023-03-29T18:11:29.736Z,100745.69
2023-03-29T18:13:59.818Z,100738.84
2023-03-29T18:16:26.935Z,100742.59
2023-03-29T18:18:53.579Z,100740.69
2023-03-29T18:21:20.290Z,100739.19
2023-03-29T18:23:48.503Z,100741.78
2023-03-29T18:26:16.426Z,100735.56
2023-03-29T18:28:48.557Z,100737.38
2023-03-29T18:31:15.622Z,100736.69
2023-03-29T18:33:42.310Z,100731.66
2023-03-29T18:36:12.966Z,100737.25
2023-03-29T18:38:43.021Z,100742.63
2023-03-29T18:41:12.114Z,100740.88
2023-03-29T18:43:39.721Z,100742.84
2023-03-29T18:46:09.651Z,100745.69
2023-03-29T18:48:38.884Z,100751.16
2023-03-29T18:51:07.444Z,100736.56
2023-03-29T18:53:35.417Z,100741.22
2023-03-29T18:56:03.446Z,100745.69
2023-03-29T18:58:31.556Z,100743.75
2023-03-29T19:01:03.694Z,100731.31
2023-03-29T19:03:31.725Z,100730.19
2023-03-29T19:05:58.592Z,100736.31
2023-03-29T19:08:28.419Z,100729.19
2023-03-29T19:11:01.966Z,100727.56
2023-03-29T19:13:28.847Z,100728.47
2023-03-29T19:15:55.512Z,100737.56
2023-03-29T19:18:22.038Z,100730.41
2023-03-29T19:20:52.672Z,100728.34
2023-03-29T19:23:19.762Z,100723.22
2023-03-29T19:25:57.624Z,100725.84
2023-03-29T19:28:25.641Z,100729.38
2023-03-29T19:30:52.780Z,100727.88
2023-03-29T19:33:20.030Z,100719.00
2023-03-29T19:35:49.193Z,100722.88
2023-03-29T19:38:18.302Z,100716.94
2023-03-29T19:40:46.906Z,100713.19
2023-03-29T19:43:16.978Z,100709.44
2023-03-29T19:45:48.823Z,100709.44
2023-03-29T19:48:22.295Z,100714.56
2023-03-29T19:50:50.178Z,100706.47
2023-03-29T19:53:16.865Z,100704.75
2023-03-29T19:55:45.382Z,100694.97
2023-03-29T19:58:12.664Z,100693.72
2023-03-29T20:00:39.353Z,100693.72
2023-03-29T20:03:10.452Z,100695.50
2023-03-29T20:05:38.830Z,100688.69
2023-03-29T20:08:06.476Z,100691.19
2023-03-29T20:10:33.829Z,100685.22
2023-03-29T20:13:00.465Z,100688.22
2023-03-29T20:15:27.109Z,100677.50
2023-03-29T20:17:56.412Z,100674.44
2023-03-29T20:20:25.526Z,100672.38
2023-03-29T20:22:57.929Z,100667.13
2023-03-29T20:25:24.819Z,100663.38
2023-03-29T20:27:51.421Z,100654.00
2023-03-29T20:30:17.931Z,100656.59
2023-03-29T20:32:44.587Z,100660.63
2023-03-29T20:35:11.921Z,100653.13
2023-03-29T20:37:38.328Z,100647.19
2023-03-29T20:40:06.398Z,100652.56
2023-03-29T20:42:34.421Z,100646.44
2023-03-29T20:45:01.340Z,100648.25
2023-03-29T20:47:29.433Z,100639.50
2023-03-29T20:49:56.717Z,100631.88
2023-03-29T20:52:23.904Z,100639.97
2023-03-29T20:54:50.731Z,100627.78
2023-03-29T20:57:19.810Z,100631.78
2023-03-29T20:59:48.856Z,100628.81
2023-03-29T21:02:21.918Z,100635.75
2023-03-29T21:04:52.730Z,100628.81
2023-03-29T21:07:20.216Z,100628.25
2023-03-29T21:09:50.248Z,100624.59
2023-03-29T21:12:17.233Z,100613.78
2023-03-29T21:14:44.562Z,100613.78
2023-03-29T21:17:11.043Z,100612.19
2023-03-29T21:19:39.237Z,100614.69
2023-03-29T21:22:06.103Z,100617.53
2023-03-29T21:24:33.179Z,100609.78
2023-03-29T21:27:00.523Z,100604.44
2023-03-29T21:29:27.442Z,100599.97
2023-03-29T21:31:54.326Z,100595.03
2023-03-29T21:34:20.933Z,100585.13
2023-03-29T21:36:47.500Z,100589.34
2023-03-29T21:39:14.344Z,100586.50
2023-03-29T21:41:41.017Z,100583.56
2023-03-29T21:44:07.455Z,100578.44
2023-03-29T21:46:33.989Z,100584.47
2023-03-29T21:49:00.577Z,100577.75
2023-03-29T21:51:27.047Z,100584.41
2023-03-29T21:53:53.516Z,100584.53
2023-03-29T21:56:19.968Z,100579.06
2023-03-29T21:58:46.373Z,100577.00
2023-03-29T22:01:12.953Z,100576.44
2023-03-29T22:03:39.425Z,100581.22
2023-03-29T22:06:09.335Z,100571.09
2023-03-29T22:08:38.773Z,100581.22
2023-03-29T22:11:08.581Z,100568.59
2023-03-29T22:13:35.408Z,100568.03
2023-03-29T22:16:03.753Z,100566.44
2023-03-29T22:18:42.594Z,100564.84
2023-03-29T22:21:18.302Z,100563.34
2023-03-29T22:23:50.757Z,100562.47
2023-03-29T22:26:19.688Z,100559.25
2023-03-29T22:28:46.096Z,100558.81
2023-03-29T22:31:15.101Z,100552.53
2023-03-29T22:33:42.529Z,100547.09
2023-03-29T22:36:29.684Z,100546.53
2023-03-29T22:38:56.918Z,100542.66
2023-03-29T22:41:25.867Z,100539.69
2023-03-29T22:43:53.912Z,100540.03
2023-03-29T22:46:20.911Z,100542.63
2023-03-29T22:48:47.770Z,100540.25
2023-03-29T22:51:15.110Z,100536.41
2023-03-29T22:53:41.834Z,100524.09
2023-03-29T22:56:09.124Z,100531.97
2023-03-29T22:58:37.061Z,100528.31
2023-03-29T23:01:05.395Z,100530.91
2023-03-29T23:03:32.173Z,100521.59
2023-03-29T23:06:02.250Z,100520.44
2023-03-29T23:08:30.984Z,100519.53
2023-03-29T23:10:58.243Z,100523.31
2023-03-29T23:13:28.517Z,100524.44
2023-03-29T23:15:57.903Z,100524.44
2023-03-29T23:18:25.232Z,100520.69
2023-03-29T23:20:54.582Z,100519.66
2023-03-29T23:23:22.837Z,100525.81
2023-03-29T23:25:51.567Z,100520.69
2023-03-29T23:28:21.623Z,100518.31
2023-03-29T23:30:56.847Z,100521.47
2023-03-29T23:33:25.418Z,100513.84
2023-03-29T23:35:52.011Z,100521.00
2023-03-29T23:38:18.493Z,100505.63
2023-03-29T23:40:52.773Z,100511.09
2023-03-29T23:43:19.205Z,100507.94
2023-03-29T23:45:45.593Z,100509.75
2023-03-29T23:48:12.362Z,100496.19
2023-03-29T23:50:38.806Z,100499.38
2023-03-29T23:53:06.429Z,100500.16
2023-03-29T23:55:32.841Z,100493.13
2023-03-29T23:57:59.275Z,100485.72
